Flight Track Log - Related Links

Times and Time Zones

All times are in EDT time to prevent confusion due to time zone crossing. See the DAL3698 flight status page for this flight to view local times or setup timezone preferences in your user account.

Time Position Orientation Groundspeed Altitude Reporting Facility
EDT Latitude Longitude Course Direction KTS MPH feet Rate Location/Type
Wed 07:19:03 AM 42.7881 -84.5472 276° West 152 175 2,700  Level Cleveland Center
Wed 07:20:03 AM 42.8356 -84.5586 350° North 190 219 4,200 2,182 Climbing Cleveland Center
Wed 07:21:00 AM 42.7254 -84.9280 279° West  Level FlightAware Approximate
Wed 07:21:37 AM 42.8272 -84.7069 266° West 259 298 8,300  Level Chicago Center
Wed 07:22:00 AM 42.7415 -85.0487 283° West  Level FlightAware Approximate
Wed 07:22:38 AM 42.8222 -84.8061 266° West 262 302 11,300  Level Chicago Center
Wed 07:23:00 AM 42.7554 -85.1697 276° West  Level FlightAware Approximate
Wed 07:23:39 AM 42.8181 -84.9108 267° West 270 311 12,600  Level Chicago Center
Wed 07:24:00 AM 42.7655 -85.3014 276° West  Level FlightAware Approximate
Wed 07:24:41 AM 42.8106 -85.0269 265° West 302 348 15,100  Level Chicago Center
Wed 07:25:42 AM 42.8292 -85.1344 283° West 300 345 16,700 1,377 Climbing Chicago Center
Wed 07:26:43 AM 42.8606 -85.2422 292° West 304 350 17,900 976 Climbing Chicago Center
Wed 07:27:45 AM 42.8931 -85.3556 291° West 317 365 18,700 976 Climbing Chicago Center
Wed 07:28:46 AM 42.9256 -85.4725 291° West 327 376 19,900 1,171 Climbing Chicago Center
Wed 07:29:48 AM 42.9586 -85.5889 291° West 330 380 21,100 1,073 Climbing Chicago Center
Wed 07:30:49 AM 42.9994 -85.7344 291° West 342 394 22,100 885 Climbing Chicago Center
Wed 07:31:50 AM 43.0336 -85.8569 291° West 349 402 22,900 732 Climbing Chicago Center
Wed 07:32:52 AM 43.0681 -85.9753 292° West 354 407 23,600 732 Climbing Chicago Center
Wed 07:33:53 AM 43.1019 -86.1033 290° West 366 421 24,400 878 Climbing Chicago Center
Wed 07:34:55 AM 43.1428 -86.2550 290° West 359 413 25,400 878 Climbing Chicago Center
Wed 07:35:56 AM 43.1775 -86.3817 291° West 356 410 26,200 780 Climbing Chicago Center
Wed 07:36:58 AM 43.2125 -86.5092 291° West 358 412 27,000 780 Climbing Chicago Center
Wed 07:37:59 AM 43.2461 -86.6367 290° West 357 411 27,800 780 Climbing Chicago Center
Wed 07:39:01 AM 43.2797 -86.7631 290° West 355 409 28,600 780 Climbing Chicago Center
Wed 07:40:02 AM 43.3139 -86.8878 291° West 351 404 29,400 683 Climbing Chicago Center
Wed 07:41:04 AM 43.3475 -87.0128 290° West 349 402 30,000 293 Climbing Chicago Center
Wed 07:42:05 AM 43.3817 -87.1394 290° West 355 409 30,000  Level Chicago Center
Wed 07:43:07 AM 43.4197 -87.2950 289° West 358 412 30,000  Level Chicago Center
Wed 07:44:08 AM 43.4508 -87.4144 290° West 362 417 30,000  Level Chicago Center
Wed 07:45:10 AM 43.4856 -87.5458 290° West 363 418 30,000  Level Chicago Center
Wed 07:46:11 AM 43.5256 -87.7000 290° West 366 421 30,000  Level Chicago Center
Wed 07:47:13 AM 43.5603 -87.8328 290° West 368 423 30,000  Level Chicago Center
Wed 07:48:15 AM 43.5933 -87.9650 289° West 366 421 30,000  Level Chicago Center
Wed 07:49:16 AM 43.6267 -88.0972 289° West 367 422 30,000  Level Chicago Center
Wed 07:50:18 AM 43.6597 -88.2294 289° West 366 421 30,000  Level Chicago Center
Wed 07:51:19 AM 43.6931 -88.3619 289° West 368 423 30,000  Level Chicago Center
Wed 07:52:26 AM 43.7306 -88.5158 289° West 368 423 30,000  Level Minneapolis Center
Wed 07:53:22 AM 43.7636 -88.6500 289° West 370 426 30,000  Level Chicago Center
Wed 07:54:28 AM 43.7958 -88.7831 289° West 370 426 30,000  Level Minneapolis Center
Wed 07:55:25 AM 43.8283 -88.9172 289° West 369 425 30,000  Level Chicago Center
Wed 07:56:27 AM 43.8600 -89.0514 288° West 368 423 30,000  Level Chicago Center
Wed 07:57:31 AM 43.8975 -89.2083 288° West 369 425 30,000  Level Minneapolis Center
Wed 07:58:32 AM 43.9303 -89.3428 289° West 369 425 30,000  Level Minneapolis Center
Wed 07:59:33 AM 43.9625 -89.4767 289° West 367 422 30,000  Level Minneapolis Center
Wed 08:00:34 AM 43.9939 -89.6106 288° West 365 420 30,000  Level Minneapolis Center
Wed 08:01:35 AM 44.0250 -89.7453 288° West 365 420 30,000  Level Minneapolis Center
Wed 08:02:36 AM 44.0569 -89.8778 289° West 363 418 30,000  Level Minneapolis Center
Wed 08:03:50 AM 44.1161 -90.0244 299° West 374 430 30,000  Level Minneapolis Center
Wed 08:04:51 AM 44.1781 -90.1711 301° West 377 434 30,000 -98 Level Minneapolis Center
Wed 08:05:52 AM 44.2303 -90.2978 300° West 377 434 29,800 -689 Descending Minneapolis Center
Wed 08:06:53 AM 44.2869 -90.4306 301° West 391 450 28,600 -1,180 Descending Minneapolis Center
Wed 08:07:54 AM 44.3444 -90.5692 300° West 406 467 27,400 -1,180 Descending Minneapolis Center
Wed 08:08:55 AM 44.4039 -90.7044 302° West 409 471 26,200 -1,180 Descending Minneapolis Center
Wed 08:09:56 AM 44.4617 -90.8433 300° West 412 474 25,000 -1,073 Descending Minneapolis Center
Wed 08:10:58 AM 44.5178 -90.9797 300° West 417 480 24,000 -488 Descending Minneapolis Center
Wed 08:11:59 AM 44.5761 -91.1183 301° West 416 479 24,000  Level Minneapolis Center
Wed 08:13:00 AM 44.6331 -91.2553 300° West 411 473 24,000  Level Minneapolis Center
Wed 08:14:01 AM 44.7008 -91.4203 300° West 409 471 24,000 -738 Level Minneapolis Center
Wed 08:15:02 AM 44.7567 -91.5564 300° West 406 467 22,500 -1,707 Descending Minneapolis Center
Wed 08:16:04 AM 44.8097 -91.6886 300° West 397 457 20,500 -1,951 Descending Minneapolis Center
Wed 08:17:05 AM 44.8619 -91.8200 299° West 390 449 18,500 -1,901 Descending Minneapolis Center
Wed 08:17:45 AM 44.9103 -91.9167 305° West 388 447 17,300 -1,900 Descending FAA TRACON SMA TRACON (SMA)
Wed 08:18:05 AM 44.9264 -91.9567 300° West 384 442 16,600 -1,950 Descending FAA TRACON SMA TRACON (SMA)
Wed 08:18:25 AM 44.9428 -91.9958 301° West 380 437 16,000 -2,250 Descending FAA TRACON SMA TRACON (SMA)
Wed 08:18:45 AM 44.9600 -92.0450 296° West 372 428 15,100 -2,400 Descending FAA TRACON SMA TRACON (SMA)
Wed 08:19:05 AM 44.9756 -92.0844 299° West 373 429 14,400 -1,950 Descending FAA TRACON SMA TRACON (SMA)
Wed 08:19:25 AM 44.9908 -92.1247 298° West 375 432 13,800 -2,250 Descending FAA TRACON SMA TRACON (SMA)
Wed 08:19:45 AM 45.0097 -92.1742 298° West 378 435 12,900 -2,400 Descending FAA TRACON SMA TRACON (SMA)
Wed 08:20:05 AM 45.0269 -92.2142 301° West 379 436 12,200 -2,195 Descending FAA TRACON SMA TRACON (SMA)
Wed 08:20:26 AM 45.0444 -92.2639 296° West 375 432 11,400 -1,610 Descending FAA TRACON SMA TRACON (SMA)
Wed 08:20:46 AM 45.0483 -92.3056 278° West 366 421 11,100 -600 Descending FAA TRACON SMA TRACON (SMA)
Wed 08:21:06 AM 45.0442 -92.3472 262° West 354 407 11,000 -300 Descending FAA TRACON SMA TRACON (SMA)
Wed 08:21:26 AM 45.0364 -92.3978 258° West 344 396 10,900  Descending FAA TRACON SMA TRACON (SMA)
Wed 08:21:46 AM 45.0294 -92.4386 256° West 345 397 11,000 154 Climbing FAA TRACON SMA TRACON (SMA)
Wed 08:22:05 AM 45.0236 -92.4797 259° West 347 399 11,000  Level FAA TRACON SMA TRACON (SMA)
Wed 08:22:25 AM 45.0164 -92.5214 256° West 351 404 11,000  Level FAA TRACON SMA TRACON (SMA)
Wed 08:22:45 AM 45.0072 -92.5733 256° West 356 410 11,000  Level FAA TRACON SMA TRACON (SMA)
Wed 08:23:06 AM 45.0006 -92.6150 257° West 355 409 11,000 -150 Level FAA TRACON SMA TRACON (SMA)
Wed 08:23:25 AM 44.9919 -92.6661 257° West 351 404 10,900  Descending FAA TRACON SMA TRACON (SMA)
Wed 08:23:45 AM 44.9853 -92.7069 257° West 348 400 11,000 146 Climbing FAA TRACON SMA TRACON (SMA)
Wed 08:24:06 AM 44.9778 -92.7481 256° West 348 400 11,000  Level FAA TRACON SMA TRACON (SMA)
Wed 08:24:25 AM 44.9714 -92.7894 258° West 352 405 11,000  Level FAA TRACON SMA TRACON (SMA)
Wed 08:24:45 AM 44.9625 -92.8414 256° West 354 407 11,000  Level FAA TRACON SMA TRACON (SMA)
Wed 08:25:05 AM 44.9553 -92.8828 256° West 354 407 11,000 -300 Level FAA TRACON SMA TRACON (SMA)
Wed 08:25:25 AM 44.9492 -92.9231 258° West 347 399 10,800 -732 Descending FAA TRACON SMA TRACON (SMA)
Wed 08:25:46 AM 44.9414 -92.9694 257° West 322 371 10,500 -1,024 Descending FAA TRACON SMA TRACON (SMA)
Wed 08:26:06 AM 44.9356 -93.0053 257° West 305 351 10,100 -1,050 Descending FAA TRACON SMA TRACON (SMA)
Wed 08:26:26 AM 44.9286 -93.0467 257° West 284 327 9,800 -1,050 Descending FAA TRACON SMA TRACON (SMA)
Wed 08:26:46 AM 44.9328 -93.0800 280° West 287 330 9,400 -1,200 Descending FAA TRACON SMA TRACON (SMA)
Wed 08:27:06 AM 44.9461 -93.1089 303° West 290 334 9,000 -1,650 Descending FAA TRACON SMA TRACON (SMA)
Wed 08:27:26 AM 44.9628 -93.1458 303° West 290 334 8,300 -1,800 Descending FAA TRACON SMA TRACON (SMA)
Wed 08:27:46 AM 44.9758 -93.1742 303° West 282 325 7,800 -1,650 Descending FAA TRACON SMA TRACON (SMA)
Wed 08:28:06 AM 44.9878 -93.2019 301° West 272 313 7,200 -1,950 Descending FAA TRACON SMA TRACON (SMA)
Wed 08:28:26 AM 45.0022 -93.2350 302° West 259 298 6,500 -1,650 Descending FAA TRACON SMA TRACON (SMA)
Wed 08:28:46 AM 45.0131 -93.2603 301° West 249 287 6,100 -750 Descending FAA TRACON SMA TRACON (SMA)
Wed 08:29:06 AM 45.0258 -93.2883 303° West 225 259 6,000 -300 Descending FAA TRACON SMA TRACON (SMA)
Wed 08:29:26 AM 45.0350 -93.3094 302° West 206 237 5,900 -300 Descending FAA TRACON SMA TRACON (SMA)
Wed 08:29:46 AM 45.0439 -93.3283 304° West 193 222 5,800 -750 Descending FAA TRACON SMA TRACON (SMA)
Wed 08:30:06 AM 45.0547 -93.3539 301° West 195 224 5,400 -1,200 Descending FAA TRACON SMA TRACON (SMA)
Wed 08:30:26 AM 45.0594 -93.3758 287° West 199 229 5,000 -900 Descending FAA TRACON SMA TRACON (SMA)
Wed 08:30:46 AM 45.0514 -93.3939 238° Southwest 197 227 4,800 -900 Descending FAA TRACON SMA TRACON (SMA)
Wed 08:31:06 AM 45.0356 -93.4103 216° Southwest 183 211 4,400 -1,050 Descending FAA TRACON SMA TRACON (SMA)
Wed 08:31:26 AM 45.0231 -93.4236 217° Southwest 179 206 4,100 -769 Descending FAA TRACON SMA TRACON (SMA)
Wed 08:31:45 AM 45.0103 -93.4333 208° Southwest 179 206 3,900 -154 Descending FAA TRACON SMA TRACON (SMA)
Wed 08:32:05 AM 44.9975 -93.4272 161° South 177 204 4,000 -439 Climbing FAA TRACON SMA TRACON (SMA)
Wed 08:32:26 AM 44.9817 -93.4139 149° Southeast 169 194 3,600 -878 Descending FAA TRACON SMA TRACON (SMA)
Wed 08:32:46 AM 44.9711 -93.4011 139° Southeast 168 193 3,400 -300 Descending FAA TRACON SMA TRACON (SMA)
Wed 08:33:06 AM 44.9617 -93.3808 123° Southeast 161 185 3,400  Level FAA TRACON SMA TRACON (SMA)

Login

Don't have an account? Register now (free) for customized features, flight alerts, and more!